Time;durP1;ratioP1;P1;durP2;ratioP2;P2;SDS_P1;SDS_P2;PMS_P1;PMS_P2;Temp;Humidity;BMP_temperature;BMP_pressure;BME280_temperature;BME280_humidity;BME280_pressure;Samples;Min_cycle;Max_cycle;Signal;HPM_P1;HPM_P2
2022/03/24 00:02:04;;;;;;;31.27;20.08;;;;;;;4.59;54.01;101919.03;4933561;29;20044;-71
2022/03/24 00:04:29;;;;;;;30.92;22.58;;;;;;;4.47;54.23;101929.00;4933588;29;20047;-71
2022/03/24 00:06:55;;;;;;;32.55;21.15;;;;;;;4.33;54.60;101941.50;4933694;29;20040;-70
2022/03/24 00:09:20;;;;;;;33.45;21.15;;;;;;;4.18;54.85;101939.13;4933599;29;20087;-70
2022/03/24 00:11:47;;;;;;;34.10;22.75;;;;;;;4.07;55.91;101940.41;4933523;29;20127;-70
2022/03/24 00:14:13;;;;;;;29.55;17.98;;;;;;;4.02;56.50;101934.97;4935795;29;20039;-71
2022/03/24 00:16:38;;;;;;;31.60;18.65;;;;;;;3.97;56.62;101933.00;4937369;29;20049;-70
2022/03/24 00:19:03;;;;;;;29.45;18.77;;;;;;;3.92;56.87;101938.88;4937204;29;20058;-70
2022/03/24 00:21:29;;;;;;;29.75;19.00;;;;;;;3.93;56.71;101931.97;4937071;29;20098;-71
2022/03/24 00:23:54;;;;;;;28.95;18.27;;;;;;;3.93;57.37;101940.69;4937339;29;20130;-71
2022/03/24 00:26:20;;;;;;;27.23;17.98;;;;;;;3.93;56.80;101935.47;4936665;29;20044;-71
2022/03/24 00:28:46;;;;;;;29.52;18.25;;;;;;;3.91;56.89;101933.63;4935743;29;20031;-70
2022/03/24 00:31:13;;;;;;;27.65;18.85;;;;;;;3.92;57.04;101931.06;4936980;29;20686;-71
2022/03/24 00:33:39;;;;;;;30.35;20.77;;;;;;;3.93;57.05;101935.47;4935583;29;20458;-71
2022/03/24 00:36:05;;;;;;;31.45;19.63;;;;;;;3.88;57.27;101929.16;4936497;29;20035;-71
2022/03/24 00:38:30;;;;;;;31.98;20.77;;;;;;;3.83;57.21;101929.78;4936687;29;20494;-71
2022/03/24 00:40:57;;;;;;;33.78;22.52;;;;;;;3.77;57.44;101929.50;4934134;29;20035;-71
2022/03/24 00:43:23;;;;;;;37.15;23.08;;;;;;;3.70;58.07;101934.47;4937041;29;20040;-71
2022/03/24 00:45:51;;;;;;;31.65;19.98;;;;;;;3.65;57.90;101928.16;4935265;29;20050;-71
2022/03/24 00:48:17;;;;;;;26.80;19.50;;;;;;;3.58;58.55;101925.19;4933113;29;20512;-71
2022/03/24 00:50:43;;;;;;;28.20;19.67;;;;;;;3.50;58.53;101928.34;4936891;29;20400;-71
2022/03/24 00:53:10;;;;;;;29.25;18.85;;;;;;;3.53;59.09;101924.97;4935368;29;20031;-71
2022/03/24 00:55:36;;;;;;;31.30;20.95;;;;;;;3.53;59.24;101916.25;4936665;29;20036;-71
2022/03/24 00:58:01;;;;;;;29.67;19.35;;;;;;;3.56;59.32;101921.59;4935451;29;20043;-71
2022/03/24 01:00:27;;;;;;;27.35;18.70;;;;;;;3.59;59.25;101917.44;4936466;29;20147;-71
2022/03/24 01:02:54;;;;;;;34.80;21.10;;;;;;;3.57;59.80;101913.84;4936327;29;20131;-71
2022/03/24 01:05:23;;;;;;;30.35;18.83;;;;;;;3.56;59.17;101921.59;4935256;29;20034;-71
2022/03/24 01:07:49;;;;;;;30.13;19.63;;;;;;;3.53;59.75;101918.88;4931860;29;20096;-71
2022/03/24 01:10:18;;;;;;;31.35;20.55;;;;;;;3.51;59.59;101916.19;4936553;29;20036;-71
2022/03/24 01:12:45;;;;;;;32.40;21.25;;;;;;;3.47;59.62;101912.56;4936213;29;20518;-72
2022/03/24 01:15:14;;;;;;;33.33;21.25;;;;;;;3.46;59.89;101910.78;4934940;29;20031;-71
2022/03/24 01:17:40;;;;;;;33.47;19.92;;;;;;;3.40;59.38;101902.66;4935523;29;20035;-71
2022/03/24 01:20:09;;;;;;;34.78;22.17;;;;;;;3.34;59.15;101907.59;4936098;29;20027;-71
2022/03/24 01:22:35;;;;;;;33.15;22.75;;;;;;;3.32;59.84;101906.63;4932052;29;20130;-71
2022/03/24 01:25:01;;;;;;;33.40;21.23;;;;;;;3.28;60.18;101905.63;4934969;29;20087;-71
2022/03/24 01:27:28;;;;;;;29.08;19.70;;;;;;;3.28;60.57;101905.63;4935999;29;20043;-71
2022/03/24 01:29:57;;;;;;;30.95;20.77;;;;;;;3.21;60.22;101903.53;4935794;29;20032;-71
2022/03/24 01:32:24;;;;;;;30.80;18.42;;;;;;;3.15;60.50;101903.28;4935501;29;20042;-71
2022/03/24 01:34:52;;;;;;;30.95;20.33;;;;;;;3.11;60.60;101911.75;4934652;29;20409;-71
2022/03/24 01:37:22;;;;;;;36.40;23.08;;;;;;;3.12;60.76;101899.59;4934646;29;20043;-71
2022/03/24 01:39:47;;;;;;;30.58;20.77;;;;;;;3.09;60.62;101897.75;4935525;29;20044;-71
2022/03/24 01:42:13;;;;;;;36.00;21.52;;;;;;;3.07;60.58;101900.31;4935382;29;20099;-71
2022/03/24 01:44:38;;;;;;;29.90;19.48;;;;;;;3.04;61.21;101894.97;4935661;29;20039;-71
2022/03/24 01:47:05;;;;;;;25.10;17.98;;;;;;;2.98;61.05;101897.25;4934011;29;20032;-71
2022/03/24 01:49:39;;;;;;;30.17;19.75;;;;;;;2.92;60.92;101906.53;4931294;29;20039;-71
2022/03/24 01:52:07;;;;;;;31.52;21.08;;;;;;;2.82;61.69;101900.88;4945976;29;20031;-71
2022/03/24 01:54:33;;;;;;;31.35;20.35;;;;;;;2.76;62.52;101903.19;4931938;29;20045;-71
2022/03/24 01:56:59;;;;;;;31.70;19.25;;;;;;;2.72;62.61;101905.56;4935017;29;20028;-71
2022/03/24 01:59:25;;;;;;;33.22;22.55;;;;;;;2.71;62.93;101906.41;4931324;29;20061;-71
2022/03/24 02:01:51;;;;;;;32.42;20.40;;;;;;;2.69;62.22;101910.66;4935171;29;20514;-71
2022/03/24 02:04:20;;;;;;;31.50;21.13;;;;;;;2.65;63.02;101909.63;4934050;29;20040;-71
2022/03/24 02:06:46;;;;;;;38.67;22.90;;;;;;;2.61;63.06;101897.25;4935339;29;20035;-71
2022/03/24 02:09:13;;;;;;;35.47;21.85;;;;;;;2.58;63.22;101902.31;4933949;29;20143;-71
2022/03/24 02:11:40;;;;;;;31.50;20.10;;;;;;;2.56;63.03;101901.34;4934729;29;20122;-71
2022/03/24 02:14:06;;;;;;;31.95;20.83;;;;;;;2.53;63.30;101904.69;4935198;29;20135;-71
2022/03/24 02:16:38;;;;;;;33.17;22.08;;;;;;;2.51;63.54;101906.31;4932758;29;20040;-70
2022/03/24 02:19:16;;;;;;;36.53;23.13;;;;;;;2.53;63.48;101903.81;4933783;29;20024;-71
2022/03/24 02:21:45;;;;;;;38.63;21.85;;;;;;;2.58;63.04;101903.19;4946346;29;20426;-71
2022/03/24 02:24:13;;;;;;;32.85;22.08;;;;;;;2.58;63.62;101905.81;4933885;29;20475;-70
2022/03/24 02:26:42;;;;;;;33.08;21.55;;;;;;;2.56;63.45;101899.63;4930902;29;20039;-70
2022/03/24 02:29:10;;;;;;;36.92;23.75;;;;;;;2.55;62.55;101902.16;4931515;29;20043;-71
2022/03/24 02:31:48;;;;;;;33.33;21.90;;;;;;;2.50;63.43;101898.44;4933863;29;20040;-71
2022/03/24 02:37:01;;;;;;;32.53;20.70;;;;;;;2.42;63.31;101885.94;4934641;29;20487;-71
2022/03/24 02:39:26;;;;;;;37.08;22.80;;;;;;;2.38;62.96;101886.63;4934160;29;20478;-71
2022/03/24 02:41:55;;;;;;;33.92;20.50;;;;;;;2.34;63.22;101887.28;4930577;29;20055;-70
2022/03/24 02:44:24;;;;;;;35.65;23.00;;;;;;;2.32;63.75;101882.81;4934455;29;20040;-70
2022/03/24 02:46:52;;;;;;;33.28;21.48;;;;;;;2.30;63.88;101884.44;4934299;29;20114;-71
2022/03/24 02:49:20;;;;;;;31.45;21.25;;;;;;;2.27;63.51;101890.38;4934496;29;20047;-70
2022/03/24 02:51:46;;;;;;;41.08;20.85;;;;;;;2.15;63.39;101882.88;4932400;29;20439;-71
2022/03/24 02:54:12;;;;;;;34.33;22.38;;;;;;;2.08;63.30;101893.81;4933166;29;20550;-71
2022/03/24 02:56:38;;;;;;;34.83;21.58;;;;;;;2.02;64.00;101888.28;4931122;29;20046;-70
2022/03/24 02:59:05;;;;;;;33.78;21.38;;;;;;;1.85;63.27;101894.34;4934150;29;20035;-71
2022/03/24 03:01:33;;;;;;;44.38;25.15;;;;;;;1.67;65.62;101900.38;4934189;29;20047;-71
2022/03/24 03:04:00;;;;;;;36.42;23.13;;;;;;;1.66;65.20;101900.31;4929035;29;20036;-71
2022/03/24 03:06:25;;;;;;;33.30;21.30;;;;;;;1.64;65.19;101895.03;4933912;29;20035;-70
2022/03/24 03:08:51;;;;;;;34.92;22.92;;;;;;;1.65;64.81;101902.03;4934137;29;20035;-70
2022/03/24 03:11:17;;;;;;;41.38;22.13;;;;;;;1.63;64.92;101895.84;4934253;29;20034;-70
2022/03/24 03:13:45;;;;;;;33.03;22.13;;;;;;;1.59;64.99;101912.09;4927962;29;20036;-71
2022/03/24 03:16:11;;;;;;;36.72;23.15;;;;;;;1.50;64.85;101912.53;4933468;29;20088;-71
2022/03/24 03:18:37;;;;;;;33.03;21.95;;;;;;;1.39;65.36;101908.47;4932169;29;20074;-71
2022/03/24 03:21:03;;;;;;;35.95;23.60;;;;;;;1.27;66.82;101903.50;4933712;29;20578;-71
2022/03/24 03:23:28;;;;;;;40.05;24.58;;;;;;;1.20;67.70;101908.28;4933466;29;20051;-70
2022/03/24 03:25:56;;;;;;;33.55;21.45;;;;;;;1.13;67.80;101911.34;4933850;29;20114;-70
2022/03/24 03:28:21;;;;;;;36.60;19.92;;;;;;;1.11;67.58;101916.50;4933812;29;20044;-70
2022/03/24 03:30:47;;;;;;;32.00;20.35;;;;;;;1.00;67.43;101918.50;4932317;29;20046;-70
2022/03/24 03:33:12;;;;;;;35.90;22.10;;;;;;;0.88;67.57;101912.63;4930185;29;20042;-71
2022/03/24 03:35:38;;;;;;;37.20;21.75;;;;;;;0.79;67.94;101909.53;4933754;29;20427;-71
2022/03/24 03:38:04;;;;;;;31.90;21.52;;;;;;;0.74;67.55;101914.47;4933701;29;20035;-71
2022/03/24 03:40:30;;;;;;;38.58;20.75;;;;;;;0.72;67.82;101915.19;4930945;29;20394;-71
2022/03/24 03:42:55;;;;;;;30.65;20.35;;;;;;;0.66;68.95;101910.56;4933084;29;20140;-71
2022/03/24 03:45:20;;;;;;;32.00;19.33;;;;;;;0.64;68.81;101923.44;4931035;29;20119;-70
2022/03/24 03:47:46;;;;;;;34.13;21.57;;;;;;;0.68;68.75;101911.50;4933829;29;20349;-70
2022/03/24 03:50:12;;;;;;;33.80;20.67;;;;;;;0.71;68.65;101914.31;4937874;29;20035;-70
2022/03/24 03:52:37;;;;;;;34.08;21.88;;;;;;;0.72;68.26;101921.28;4937183;29;20051;-70
2022/03/24 03:55:04;;;;;;;32.33;19.77;;;;;;;0.70;68.92;101909.91;4934208;29;20051;-70
2022/03/24 03:57:29;;;;;;;36.60;21.15;;;;;;;0.63;68.49;101915.59;4936018;29;20119;-70
2022/03/24 03:59:54;;;;;;;34.83;20.00;;;;;;;0.59;68.81;101924.00;4937537;29;20122;-70
2022/03/24 04:02:20;;;;;;;37.55;21.83;;;;;;;0.53;68.56;101921.97;4936759;29;20047;-71
2022/03/24 04:04:45;;;;;;;37.00;23.10;;;;;;;0.50;69.15;101923.47;4937343;29;20391;-70
2022/03/24 04:07:12;;;;;;;31.70;19.20;;;;;;;0.47;69.17;101919.00;4936013;29;20040;-71
2022/03/24 04:09:38;;;;;;;35.08;21.58;;;;;;;0.38;68.57;101921.09;4935134;29;20035;-71
2022/03/24 04:12:04;;;;;;;34.97;21.53;;;;;;;0.36;69.76;101926.19;4937109;29;20038;-72
2022/03/24 04:14:29;;;;;;;37.07;22.50;;;;;;;0.36;70.09;101925.28;4937169;29;20103;-71
2022/03/24 04:16:58;;;;;;;34.23;21.90;;;;;;;0.39;70.49;101920.25;4936329;29;20071;-70
2022/03/24 04:19:25;;;;;;;35.77;22.23;;;;;;;0.41;70.19;101922.13;4937065;29;20032;-72
2022/03/24 04:21:50;;;;;;;34.08;21.05;;;;;;;0.39;70.67;101920.25;4936727;29;20051;-73
2022/03/24 04:24:16;;;;;;;37.60;22.60;;;;;;;0.34;70.55;101925.22;4936454;29;20176;-71
2022/03/24 04:26:41;;;;;;;39.63;23.80;;;;;;;0.36;70.99;101922.69;4935037;29;20039;-73
2022/03/24 04:29:07;;;;;;;38.03;23.17;;;;;;;0.33;71.65;101920.81;4933661;29;20035;-73
2022/03/24 04:31:32;;;;;;;38.27;23.50;;;;;;;0.33;70.44;101927.72;4932888;29;20040;-71
2022/03/24 04:33:58;;;;;;;37.47;22.33;;;;;;;0.34;70.04;101926.91;4936326;29;20066;-71
2022/03/24 04:36:23;;;;;;;36.30;22.70;;;;;;;0.25;73.45;101923.78;4928976;29;20040;-72
2022/03/24 04:38:48;;;;;;;37.27;22.00;;;;;;;0.23;73.63;101923.69;4933431;29;20179;-71
2022/03/24 04:41:14;;;;;;;40.70;24.03;;;;;;;0.27;73.58;101920.47;4936156;29;20130;-71
2022/03/24 04:43:39;;;;;;;43.47;26.50;;;;;;;0.33;73.61;101923.41;4931625;29;20122;-70
2022/03/24 04:46:05;;;;;;;41.33;26.03;;;;;;;0.34;73.78;101926.91;4936490;29;20047;-71
2022/03/24 04:48:36;;;;;;;36.00;22.97;;;;;;;0.32;73.40;101926.81;4936431;29;20039;-74
2022/03/24 04:51:03;;;;;;;31.90;20.93;;;;;;;0.28;73.18;101927.44;4932964;29;20034;-72
2022/03/24 04:53:29;;;;;;;36.20;23.23;;;;;;;0.28;72.82;101917.06;4934190;29;20051;-73
2022/03/24 04:55:55;;;;;;;38.00;21.90;;;;;;;0.27;73.70;101925.66;4932661;29;20039;-73
2022/03/24 04:58:20;;;;;;;40.40;22.90;;;;;;;0.24;74.05;101928.09;4933853;29;20066;-72
2022/03/24 05:00:45;;;;;;;37.53;22.17;;;;;;;0.24;72.65;101930.69;4936589;29;20261;-72
2022/03/24 05:03:11;;;;;;;33.27;20.50;;;;;;;0.21;72.31;101931.41;4936211;29;20091;-72
2022/03/24 05:05:37;;;;;;;35.60;21.30;;;;;;;0.16;72.15;101934.53;4935494;29;20024;-72
2022/03/24 05:08:04;;;;;;;33.10;20.80;;;;;;;0.12;72.42;101932.56;4933064;29;20506;-72
2022/03/24 05:10:29;;;;;;;38.97;25.53;;;;;;;0.08;73.85;101933.16;4936480;29;20102;-72
2022/03/24 05:12:55;;;;;;;38.75;22.85;;;;;;;0.09;74.07;101942.75;4936231;29;20067;-73
2022/03/24 05:15:20;;;;;;;39.40;22.60;;;;;;;0.08;74.63;101936.69;4936060;29;20155;-73
2022/03/24 05:17:46;;;;;;;36.33;23.48;;;;;;;0.14;74.04;101933.53;4936070;29;20036;-72
2022/03/24 05:20:12;;;;;;;39.30;22.33;;;;;;;0.17;73.46;101928.53;4935764;29;20044;-72
2022/03/24 05:22:37;;;;;;;41.20;22.10;;;;;;;0.26;73.17;101928.16;4935200;29;20055;-72
2022/03/24 05:25:03;;;;;;;35.83;23.63;;;;;;;0.34;73.46;101933.00;4934693;29;20035;-72
2022/03/24 05:27:29;;;;;;;36.23;22.13;;;;;;;0.41;72.38;101939.44;4933694;29;20059;-73
2022/03/24 05:29:54;;;;;;;36.03;22.37;;;;;;;0.48;72.07;101933.78;4933756;29;20482;-72
2022/03/24 05:32:19;;;;;;;39.50;22.40;;;;;;;0.55;71.77;101937.63;4935165;29;20461;-73
2022/03/24 05:34:45;;;;;;;45.87;26.17;;;;;;;0.55;72.44;101935.00;4934765;29;20095;-73
2022/03/24 05:37:11;;;;;;;38.78;23.52;;;;;;;0.59;72.24;101939.59;4932488;29;20099;-73
2022/03/24 05:39:37;;;;;;;34.85;23.05;;;;;;;0.63;71.74;101938.97;4934759;29;20034;-73
2022/03/24 05:42:02;;;;;;;39.42;24.73;;;;;;;0.73;71.66;101940.38;4931816;29;20035;-73
2022/03/24 05:44:29;;;;;;;39.38;24.05;;;;;;;0.78;71.15;101939.81;4930509;29;20694;-73
2022/03/24 05:46:55;;;;;;;35.42;22.80;;;;;;;0.81;70.86;101936.47;4931457;29;20047;-73
2022/03/24 05:49:21;;;;;;;31.88;20.50;;;;;;;0.91;70.99;101944.00;4932554;29;20118;-73
2022/03/24 05:52:05;;;;;;;32.50;21.10;;;;;;;1.00;70.62;101941.03;4930860;29;20144;-73
2022/03/24 05:54:31;;;;;;;36.90;24.15;;;;;;;1.01;69.67;101942.81;4929836;29;20044;-73
2022/03/24 05:56:56;;;;;;;37.08;23.23;;;;;;;1.00;70.14;101935.81;4934222;29;20031;-72
2022/03/24 05:59:22;;;;;;;42.67;27.55;;;;;;;1.01;70.07;101940.19;4926185;29;20032;-72
2022/03/24 06:01:47;;;;;;;40.60;25.60;;;;;;;1.04;70.31;101937.75;4927250;29;20043;-73
2022/03/24 06:04:15;;;;;;;34.30;21.70;;;;;;;1.13;70.29;101942.56;4931675;29;20111;-73
2022/03/24 06:06:41;;;;;;;35.00;23.50;;;;;;;1.24;69.77;101936.25;4934895;29;20658;-72
2022/03/24 06:09:07;;;;;;;39.22;21.88;;;;;;;1.34;69.93;101935.94;4934281;29;20455;-73
2022/03/24 06:11:36;;;;;;;33.95;22.20;;;;;;;1.42;69.69;101933.75;4934543;29;20052;-72
2022/03/24 06:14:07;;;;;;;39.58;25.85;;;;;;;1.53;70.21;101937.81;4931983;29;20046;-72
2022/03/24 06:16:34;;;;;;;41.10;26.07;;;;;;;1.61;69.70;101946.03;4935117;29;20051;-73
2022/03/24 06:19:00;;;;;;;38.55;22.95;;;;;;;1.67;69.79;101936.81;4935116;29;20063;-72
2022/03/24 06:21:25;;;;;;;40.97;26.00;;;;;;;1.79;69.76;101936.59;4933696;29;20035;-73
2022/03/24 06:23:50;;;;;;;40.35;25.52;;;;;;;1.95;69.56;101938.25;4934751;29;20495;-72
2022/03/24 06:26:19;;;;;;;35.60;23.58;;;;;;;2.07;68.87;101946.72;4934935;29;20031;-73
2022/03/24 06:28:44;;;;;;;39.40;25.73;;;;;;;2.19;69.09;101944.72;4934921;29;20032;-72
2022/03/24 06:31:11;;;;;;;44.10;26.35;;;;;;;2.33;68.62;101947.09;4931071;29;20490;-73
2022/03/24 06:33:37;;;;;;;36.85;24.83;;;;;;;2.46;68.62;101946.00;4935146;29;20394;-73
2022/03/24 06:36:02;;;;;;;40.47;27.13;;;;;;;2.54;68.25;101948.19;4933180;29;20036;-72
2022/03/24 06:38:27;;;;;;;43.50;27.42;;;;;;;2.57;68.71;101945.72;4933489;29;20518;-72
2022/03/24 06:40:53;;;;;;;49.88;29.98;;;;;;;2.65;69.58;101946.13;4934357;29;20047;-73
2022/03/24 06:43:18;;;;;;;45.17;28.77;;;;;;;2.78;69.27;101948.50;4934879;29;20046;-73
2022/03/24 06:45:43;;;;;;;40.25;27.40;;;;;;;2.95;68.82;101951.88;4934687;29;20039;-72
2022/03/24 06:48:09;;;;;;;44.58;27.13;;;;;;;3.10;68.46;101958.66;4934318;29;20043;-73
2022/03/24 06:50:35;;;;;;;40.10;26.95;;;;;;;3.20;68.76;101959.16;4934411;29;20035;-72
2022/03/24 06:53:02;;;;;;;41.65;27.85;;;;;;;3.31;69.07;101951.84;4932977;29;20035;-72
2022/03/24 06:55:28;;;;;;;46.33;29.27;;;;;;;3.40;69.30;101959.19;4934472;29;20039;-73
2022/03/24 06:57:53;;;;;;;43.25;28.60;;;;;;;3.56;68.10;101960.75;4934564;29;20406;-72
2022/03/24 07:00:18;;;;;;;39.40;27.85;;;;;;;3.71;67.89;101964.06;4934546;29;20472;-72
2022/03/24 07:02:46;;;;;;;43.53;28.88;;;;;;;3.85;67.88;101962.97;4934246;29;20040;-72
2022/03/24 07:05:12;;;;;;;48.03;29.70;;;;;;;3.97;66.67;101969.56;4934371;29;20126;-72
2022/03/24 07:07:39;;;;;;;43.05;29.77;;;;;;;4.09;66.20;101972.72;4934307;29;20039;-72
2022/03/24 07:10:05;;;;;;;45.05;31.58;;;;;;;4.21;66.15;101970.59;4934454;29;20535;-72
2022/03/24 07:12:31;;;;;;;46.50;31.30;;;;;;;4.31;65.53;101974.50;4929680;29;20031;-72
2022/03/24 07:14:56;;;;;;;47.72;31.23;;;;;;;4.42;65.47;101972.34;4934084;29;20035;-72
2022/03/24 07:17:22;;;;;;;43.95;29.98;;;;;;;4.53;65.21;101974.59;4933166;29;20061;-72
2022/03/24 07:19:48;;;;;;;44.42;28.38;;;;;;;4.63;64.87;101968.00;4934174;29;20040;-72
2022/03/24 07:22:13;;;;;;;44.38;30.20;;;;;;;4.73;64.94;101969.28;4933197;29;20119;-72
2022/03/24 07:24:39;;;;;;;47.92;30.67;;;;;;;4.86;64.55;101970.66;4933601;29;20094;-72
2022/03/24 07:27:04;;;;;;;39.40;28.08;;;;;;;4.97;64.20;101970.25;4934083;29;20396;-72
2022/03/24 07:29:30;;;;;;;47.30;29.35;;;;;;;5.10;63.46;101966.41;4932607;29;20073;-72
2022/03/24 07:31:55;;;;;;;52.95;29.95;;;;;;;5.24;62.77;101966.97;4933607;29;20566;-72
2022/03/24 07:34:20;;;;;;;53.47;33.88;;;;;;;5.26;62.88;101968.78;4933852;29;20507;-72
2022/03/24 07:36:46;;;;;;;52.50;32.88;;;;;;;5.40;62.58;101974.56;4933386;29;20607;-72
2022/03/24 07:39:11;;;;;;;46.80;31.88;;;;;;;5.52;61.86;101976.72;4931312;29;20047;-72
2022/03/24 07:41:37;;;;;;;41.58;28.95;;;;;;;5.65;61.28;101981.59;4932523;29;20111;-72
2022/03/24 07:44:03;;;;;;;40.47;29.88;;;;;;;5.78;60.99;101979.44;4933989;29;20038;-73
2022/03/24 07:46:29;;;;;;;44.95;27.92;;;;;;;5.90;60.51;101979.88;4932871;29;20126;-73
2022/03/24 07:48:54;;;;;;;41.70;28.10;;;;;;;6.00;60.41;101984.66;4933722;29;20111;-72
2022/03/24 07:51:20;;;;;;;44.75;30.17;;;;;;;6.11;60.19;101980.69;4931503;29;20050;-72
2022/03/24 07:53:48;;;;;;;45.45;28.63;;;;;;;6.25;59.90;101977.63;4933255;29;20053;-72
2022/03/24 07:56:17;;;;;;;42.33;28.02;;;;;;;6.34;59.17;101977.94;4930571;29;20067;-72
2022/03/24 07:58:43;;;;;;;42.53;28.23;;;;;;;6.47;58.85;101977.56;4933666;29;20039;-72
2022/03/24 08:01:11;;;;;;;41.85;28.50;;;;;;;6.57;58.63;101974.38;4932485;29;20075;-72
2022/03/24 08:03:37;;;;;;;41.20;28.13;;;;;;;6.69;57.81;101976.50;4933769;29;20048;-72
2022/03/24 08:06:02;;;;;;;40.05;27.48;;;;;;;6.81;58.20;101962.88;4948650;23;20066;-71
2022/03/24 08:08:29;;;;;;;40.03;26.95;;;;;;;6.92;57.74;101974.66;4913860;29;20044;-71
2022/03/24 08:10:54;;;;;;;43.45;27.88;;;;;;;7.08;57.51;101969.88;4914272;29;20488;-71
2022/03/24 08:13:21;;;;;;;62.47;39.45;;;;;;;7.21;57.73;101966.78;4916545;29;20032;-71
2022/03/24 08:15:47;;;;;;;46.45;32.60;;;;;;;7.30;56.93;101969.69;4914487;29;20043;-71
2022/03/24 08:18:14;;;;;;;43.60;31.02;;;;;;;7.39;56.98;101967.34;4915054;29;20072;-71
2022/03/24 08:20:41;;;;;;;40.25;28.20;;;;;;;7.47;56.63;101973.72;4912920;29;20034;-71
2022/03/24 08:23:10;;;;;;;39.13;27.15;;;;;;;7.56;56.48;101973.06;4910586;29;20032;-71
2022/03/24 08:25:40;;;;;;;41.25;27.52;;;;;;;7.65;55.99;101969.81;4914139;29;20032;-72
2022/03/24 08:28:05;;;;;;;41.13;27.77;;;;;;;7.77;55.90;101967.53;4915456;29;20039;-72
2022/03/24 08:30:31;;;;;;;40.83;28.05;;;;;;;7.92;54.94;101964.47;4913502;29;20466;-71
2022/03/24 08:32:57;;;;;;;44.15;27.35;;;;;;;8.00;54.47;101969.94;4912661;29;20075;-72
2022/03/24 08:35:23;;;;;;;40.00;26.98;;;;;;;8.09;53.50;101981.56;4915933;29;20075;-71
2022/03/24 08:37:48;;;;;;;37.38;26.38;;;;;;;8.22;53.62;101972.28;4916927;29;20080;-71
2022/03/24 08:40:13;;;;;;;40.22;28.45;;;;;;;8.31;53.16;101977.78;4915460;29;20036;-71
2022/03/24 08:42:41;;;;;;;41.15;29.15;;;;;;;8.39;52.86;101966.59;4916074;29;20044;-71
2022/03/24 08:45:11;;;;;;;39.40;27.95;;;;;;;8.48;52.57;101967.72;4918648;29;20495;-71
2022/03/24 08:47:37;;;;;;;37.75;26.13;;;;;;;8.59;52.35;101972.38;4917646;29;20036;-71
2022/03/24 08:50:08;;;;;;;46.85;33.33;;;;;;;8.72;52.46;101967.47;4917470;29;20502;-71
2022/03/24 08:52:35;;;;;;;54.72;33.13;;;;;;;8.68;51.52;101970.88;4914244;29;20032;-72
2022/03/24 08:55:01;;;;;;;45.70;33.60;;;;;;;8.76;52.23;101969.31;4914287;29;20445;-72
2022/03/24 08:57:27;;;;;;;42.67;29.88;;;;;;;8.91;52.43;101973.19;4917165;29;20529;-72
2022/03/24 08:59:54;;;;;;;42.92;29.95;;;;;;;9.06;51.74;101970.88;4914822;29;20020;-72
2022/03/24 09:02:20;;;;;;;44.95;31.23;;;;;;;9.16;51.33;101971.97;4912618;29;20055;-72
2022/03/24 09:04:49;;;;;;;46.90;30.08;;;;;;;9.27;51.24;101973.09;4914421;29;20122;-72
2022/03/24 09:07:15;;;;;;;43.55;29.20;;;;;;;9.40;50.29;101976.91;4912612;29;20039;-72
2022/03/24 09:09:41;;;;;;;50.40;35.40;;;;;;;9.53;50.48;101971.03;4910130;29;20491;-72
2022/03/24 09:12:09;;;;;;;43.40;30.67;;;;;;;9.62;49.98;101973.88;4913868;29;20079;-72
2022/03/24 09:14:35;;;;;;;37.47;27.48;;;;;;;9.77;49.56;101975.03;4914982;29;20495;-73
2022/03/24 09:17:01;;;;;;;42.33;28.63;;;;;;;9.80;49.33;101976.00;4917141;29;20051;-72
2022/03/24 09:19:26;;;;;;;41.45;28.63;;;;;;;9.92;49.26;101972.72;4911808;29;20028;-72
2022/03/24 09:21:52;;;;;;;40.45;28.58;;;;;;;10.06;49.13;101972.97;4916804;29;20467;-72
2022/03/24 09:24:17;;;;;;;41.75;29.42;;;;;;;10.17;48.86;101966.16;4915753;29;20047;-72
2022/03/24 09:26:42;;;;;;;39.50;28.73;;;;;;;10.31;48.83;101963.78;4916846;29;20084;-72
2022/03/24 09:29:08;;;;;;;41.03;27.90;;;;;;;10.45;48.03;101966.66;4917182;29;20100;-72
2022/03/24 09:31:35;;;;;;;42.95;28.73;;;;;;;10.54;47.53;101964.22;4917227;29;20062;-73
2022/03/24 09:34:01;;;;;;;42.03;28.05;;;;;;;10.70;47.56;101968.00;4916881;29;20048;-72
2022/03/24 09:36:26;;;;;;;37.40;27.40;;;;;;;10.80;47.69;101972.56;4916921;29;20380;-72
2022/03/24 09:38:51;;;;;;;41.97;30.50;;;;;;;10.89;47.05;101961.22;4914498;29;20504;-72
2022/03/24 09:41:19;;;;;;;39.30;28.67;;;;;;;11.03;46.69;101966.72;4916584;29;20044;-72
2022/03/24 09:43:45;;;;;;;41.97;27.15;;;;;;;11.17;46.67;101965.19;4916462;29;20099;-72
2022/03/24 09:46:11;;;;;;;42.08;29.48;;;;;;;11.26;46.01;101969.69;4915900;29;20035;-72
2022/03/24 09:48:36;;;;;;;43.20;29.63;;;;;;;11.35;46.33;101965.44;4916778;29;20127;-72
2022/03/24 09:51:02;;;;;;;41.97;28.92;;;;;;;11.47;45.92;101963.81;4916598;29;20471;-72
2022/03/24 09:53:28;;;;;;;40.85;29.58;;;;;;;11.61;45.52;101967.53;4916777;29;20628;-72
2022/03/24 09:55:54;;;;;;;37.28;27.88;;;;;;;11.74;45.59;101963.28;4913734;29;20111;-71
2022/03/24 09:58:24;;;;;;;39.85;28.23;;;;;;;11.90;44.70;101964.38;4916621;29;20396;-72
2022/03/24 10:00:49;;;;;;;39.70;28.65;;;;;;;11.98;44.51;101965.34;4916480;29;20039;-72
2022/03/24 10:03:21;;;;;;;45.20;29.60;;;;;;;12.10;43.87;101978.69;4916283;29;20028;-72
2022/03/24 10:06:07;;;;;;;38.88;29.35;;;;;;;12.13;43.88;101968.16;4916220;29;20046;-72
2022/03/24 10:08:34;;;;;;;38.55;28.15;;;;;;;12.20;43.84;101962.03;4916399;29;20083;-72
2022/03/24 10:11:07;;;;;;;41.20;28.20;;;;;;;12.35;43.82;101957.78;4915486;29;20039;-72
2022/03/24 10:13:46;;;;;;;37.95;28.00;;;;;;;12.54;44.25;101958.84;4916335;29;20574;-72
2022/03/24 10:16:35;;;;;;;42.90;28.45;;;;;;;12.62;43.49;101955.38;4913958;29;20040;-72
2022/03/24 10:19:03;;;;;;;40.25;28.83;;;;;;;12.76;43.37;101954.59;4914023;29;20043;-72
2022/03/24 10:21:29;;;;;;;41.10;28.83;;;;;;;12.90;43.36;101950.28;4914477;29;20380;-73
2022/03/24 10:24:05;;;;;;;44.55;28.83;;;;;;;12.91;42.50;101946.75;4916028;29;20040;-72
2022/03/24 10:26:55;;;;;;;37.55;28.02;;;;;;;13.12;42.66;101946.88;4914889;29;20072;-72
2022/03/24 10:29:23;;;;;;;40.05;28.65;;;;;;;13.29;42.50;101941.72;4916385;29;20119;-72
2022/03/24 10:31:53;;;;;;;35.10;26.27;;;;;;;13.45;41.14;101944.44;4915722;29;20041;-72
2022/03/24 10:34:36;;;;;;;37.58;27.25;;;;;;;13.63;40.71;101939.22;4914574;29;20036;-72
2022/03/24 10:37:13;;;;;;;35.80;26.77;;;;;;;13.80;40.48;101933.97;4912840;29;20486;-72
2022/03/24 10:39:54;;;;;;;36.38;25.90;;;;;;;13.92;39.44;101939.31;4915869;29;20124;-72
2022/03/24 10:42:20;;;;;;;36.13;27.55;;;;;;;13.98;39.33;101939.31;4915663;29;20040;-72
2022/03/24 10:45:09;;;;;;;42.35;26.52;;;;;;;14.06;39.56;101930.47;4915833;29;20028;-72
2022/03/24 10:47:42;;;;;;;41.05;26.33;;;;;;;14.19;39.24;101922.53;4915692;29;20047;-72
2022/03/24 10:50:28;;;;;;;37.58;26.38;;;;;;;14.38;39.19;101918.16;4915676;29;20067;-72
2022/03/24 10:52:58;;;;;;;33.90;23.02;;;;;;;14.55;36.97;101925.25;4912982;29;20082;-73
2022/03/24 10:55:31;;;;;;;31.08;21.73;;;;;;;14.67;36.24;101923.47;4915791;29;20036;-72
2022/03/24 10:57:58;;;;;;;24.77;16.80;;;;;;;14.76;33.85;101917.25;4912480;29;20130;-72
2022/03/24 11:00:23;;;;;;;28.92;18.60;;;;;;;14.87;33.76;101918.13;4915521;29;20047;-72
2022/03/24 11:02:49;;;;;;;44.65;29.52;;;;;;;15.05;34.48;101922.50;4915284;29;20039;-72
2022/03/24 11:05:14;;;;;;;30.92;21.40;;;;;;;15.18;32.95;101918.03;4914345;29;20032;-73
2022/03/24 11:07:40;;;;;;;23.08;16.70;;;;;;;15.22;32.17;101910.94;4915223;29;20653;-73
2022/03/24 11:10:12;;;;;;;26.55;18.58;;;;;;;15.15;31.69;101904.75;4913937;29;20037;-73
2022/03/24 11:12:39;;;;;;;32.40;18.13;;;;;;;15.23;31.77;101913.59;4911290;29;20085;-72
2022/03/24 11:15:07;;;;;;;25.08;17.52;;;;;;;15.24;31.11;101910.03;4914526;29;20032;-73
2022/03/24 11:17:37;;;;;;;28.08;19.10;;;;;;;15.31;31.34;101902.94;4910732;29;20052;-73
2022/03/24 11:20:15;;;;;;;27.77;18.35;;;;;;;15.38;31.16;101903.78;4909749;29;20083;-72